createdAt,value
2017-05-11T00:00:18.552Z,0
2017-05-11T00:00:59.151Z,0
2017-05-11T00:01:39.720Z,0
2017-05-11T00:02:20.312Z,0
2017-05-11T00:03:00.921Z,0
2017-05-11T00:03:41.515Z,0
2017-05-11T00:04:22.085Z,0
2017-05-11T00:05:02.654Z,0
2017-05-11T00:05:43.264Z,0
2017-05-11T00:06:23.866Z,0
2017-05-11T00:07:04.472Z,0
2017-05-11T00:07:45.075Z,0
2017-05-11T00:08:25.656Z,0
2017-05-11T00:09:06.235Z,0
2017-05-11T00:09:46.833Z,0
2017-05-11T00:10:27.432Z,0
2017-05-11T00:11:08.009Z,0
2017-05-11T00:11:48.608Z,0
2017-05-11T00:12:29.187Z,0
2017-05-11T00:13:09.772Z,0
2017-05-11T00:13:50.394Z,0
2017-05-11T00:14:30.967Z,0
2017-05-11T00:15:11.590Z,0
2017-05-11T00:15:52.210Z,0
2017-05-11T00:16:32.822Z,0
2017-05-11T00:17:13.420Z,0
2017-05-11T00:17:53.991Z,0
2017-05-11T00:18:34.592Z,0
2017-05-11T00:19:15.182Z,0
2017-05-11T00:19:55.807Z,0
2017-05-11T00:20:36.386Z,0
2017-05-11T00:21:16.974Z,0
2017-05-11T00:21:57.553Z,0
2017-05-11T00:22:38.127Z,0
2017-05-11T00:23:18.760Z,0
2017-05-11T00:23:59.393Z,0
2017-05-11T00:24:40.236Z,0
2017-05-11T00:25:21.195Z,0
2017-05-11T00:26:01.824Z,0
2017-05-11T00:26:42.400Z,0
2017-05-11T00:27:22.979Z,0
2017-05-11T00:28:03.633Z,0
2017-05-11T00:28:44.235Z,0
2017-05-11T00:29:24.820Z,0
2017-05-11T00:30:05.387Z,0
2017-05-11T00:30:45.957Z,0
2017-05-11T00:31:26.546Z,0
2017-05-11T00:32:07.110Z,0
2017-05-11T00:32:47.674Z,0
2017-05-11T00:33:28.246Z,0
2017-05-11T00:34:08.829Z,0
2017-05-11T00:34:53.272Z,0
2017-05-11T00:35:33.863Z,0
2017-05-11T00:36:14.442Z,0
2017-05-11T00:36:55.024Z,0
2017-05-11T00:37:35.662Z,0
2017-05-11T00:38:16.233Z,0
2017-05-11T00:38:56.834Z,0
2017-05-11T00:39:37.405Z,0
2017-05-11T00:40:17.993Z,0
2017-05-11T00:40:58.570Z,0
2017-05-11T00:41:39.181Z,0
2017-05-11T00:42:20.741Z,0
2017-05-11T00:43:01.332Z,0
2017-05-11T00:43:41.925Z,0
2017-05-11T00:44:22.563Z,0
2017-05-11T00:45:03.140Z,0
2017-05-11T00:45:43.722Z,0
2017-05-11T00:46:24.364Z,0
2017-05-11T00:47:04.903Z,0
2017-05-11T00:47:45.515Z,0
2017-05-11T00:48:26.082Z,0
2017-05-11T00:49:06.660Z,0
2017-05-11T00:49:47.240Z,0
2017-05-11T00:50:27.868Z,0
2017-05-11T00:51:08.463Z,0
2017-05-11T00:51:49.048Z,0
2017-05-11T00:52:29.642Z,0
2017-05-11T00:53:10.241Z,0
2017-05-11T00:53:50.832Z,0
2017-05-11T00:54:31.405Z,0
2017-05-11T00:55:12.011Z,0
2017-05-11T00:55:52.607Z,0
2017-05-11T00:56:33.192Z,0
2017-05-11T00:57:13.770Z,0
2017-05-11T00:57:54.360Z,0
2017-05-11T00:58:34.940Z,0
2017-05-11T00:59:15.554Z,0
2017-05-11T00:59:56.171Z,0
2017-05-11T01:00:36.747Z,0
2017-05-11T01:01:17.319Z,0
2017-05-11T01:01:57.934Z,0
2017-05-11T01:02:38.590Z,0
2017-05-11T01:03:19.179Z,0
2017-05-11T01:03:59.758Z,0
2017-05-11T01:04:40.347Z,0
2017-05-11T01:05:21.001Z,0
2017-05-11T01:06:01.611Z,0
2017-05-11T01:06:42.219Z,0
2017-05-11T01:07:22.850Z,0
2017-05-11T01:08:03.431Z,0
2017-05-11T01:08:44.003Z,0
2017-05-11T01:09:24.578Z,0
2017-05-11T01:10:05.165Z,0
2017-05-11T01:10:45.773Z,0
2017-05-11T01:11:26.405Z,0
2017-05-11T01:12:06.930Z,0
2017-05-11T01:12:47.495Z,0
2017-05-11T01:13:28.065Z,0
2017-05-11T01:14:08.675Z,0
2017-05-11T01:14:49.231Z,0
2017-05-11T01:15:29.836Z,0
2017-05-11T01:16:10.434Z,0
2017-05-11T01:16:51.051Z,0
2017-05-11T01:17:31.634Z,0
2017-05-11T01:18:12.226Z,0
2017-05-11T01:18:52.833Z,0
2017-05-11T01:19:33.396Z,0
2017-05-11T01:20:13.969Z,0
2017-05-11T01:20:54.579Z,0
2017-05-11T01:21:35.151Z,0
2017-05-11T01:22:15.776Z,0
2017-05-11T01:22:56.341Z,0
2017-05-11T01:23:36.903Z,0
2017-05-11T01:24:17.497Z,0
2017-05-11T01:24:58.092Z,0
2017-05-11T01:25:38.666Z,0
2017-05-11T01:26:19.271Z,0
2017-05-11T01:26:59.986Z,0
2017-05-11T01:27:40.602Z,0
2017-05-11T01:28:21.218Z,0
2017-05-11T01:29:01.797Z,0
2017-05-11T01:29:42.426Z,0
2017-05-11T01:30:22.961Z,0
2017-05-11T01:31:03.565Z,0
2017-05-11T01:31:44.156Z,0
2017-05-11T01:32:24.877Z,0
2017-05-11T01:33:05.465Z,0
2017-05-11T01:33:46.052Z,0
2017-05-11T01:34:26.659Z,0
2017-05-11T01:35:07.245Z,0
2017-05-11T01:35:47.850Z,0
2017-05-11T01:36:28.422Z,0
2017-05-11T01:37:09.025Z,0
2017-05-11T01:37:49.611Z,0
2017-05-11T01:38:30.200Z,0
2017-05-11T01:39:10.790Z,0
2017-05-11T01:39:51.430Z,0
2017-05-11T01:40:32.013Z,0
2017-05-11T01:41:12.628Z,0
2017-05-11T01:41:53.217Z,0
2017-05-11T01:42:33.800Z,0
2017-05-11T01:43:14.415Z,0
2017-05-11T01:43:55.018Z,0
2017-05-11T01:44:35.612Z,0
2017-05-11T01:45:16.205Z,0
2017-05-11T01:45:56.803Z,0
2017-05-11T01:46:37.376Z,0
2017-05-11T01:47:17.963Z,0
2017-05-11T01:47:58.559Z,0
2017-05-11T01:48:39.226Z,0
2017-05-11T01:49:19.801Z,0
2017-05-11T01:50:00.386Z,0
2017-05-11T01:50:40.967Z,0
2017-05-11T01:51:21.542Z,0
2017-05-11T01:52:02.128Z,0
2017-05-11T01:52:42.707Z,0
2017-05-11T01:53:23.274Z,0
2017-05-11T01:54:03.860Z,0
2017-05-11T01:54:44.548Z,0
2017-05-11T01:55:25.136Z,0
2017-05-11T01:56:05.728Z,0
2017-05-11T01:56:46.287Z,0
2017-05-11T01:57:26.925Z,0
2017-05-11T01:58:07.487Z,0
2017-05-11T01:58:48.066Z,0
2017-05-11T01:59:28.653Z,0
2017-05-11T02:00:09.271Z,0
2017-05-11T02:00:49.858Z,0
2017-05-11T02:01:30.427Z,0
2017-05-11T02:02:11.018Z,0
2017-05-11T02:02:51.624Z,0
2017-05-11T02:03:32.217Z,0
2017-05-11T02:04:12.845Z,0
2017-05-11T02:04:53.421Z,0
2017-05-11T02:05:34.000Z,0
2017-05-11T02:06:14.563Z,0
2017-05-11T02:06:55.173Z,0
2017-05-11T02:07:35.798Z,0
2017-05-11T02:08:16.391Z,0
2017-05-11T02:08:56.981Z,0
2017-05-11T02:09:37.557Z,0
2017-05-11T02:10:18.150Z,0
2017-05-11T02:10:58.793Z,0
2017-05-11T02:11:39.383Z,0
2017-05-11T02:12:19.960Z,0
2017-05-11T02:13:00.556Z,0
2017-05-11T02:13:41.176Z,0
2017-05-11T02:14:21.765Z,0
2017-05-11T02:15:02.352Z,0
2017-05-11T02:15:42.945Z,0
2017-05-11T02:16:23.558Z,0
2017-05-11T02:17:04.146Z,0
2017-05-11T02:17:44.740Z,0
2017-05-11T02:18:25.334Z,0
2017-05-11T02:19:05.918Z,0
2017-05-11T02:19:46.516Z,0
2017-05-11T02:20:27.102Z,0
2017-05-11T02:21:07.678Z,0
2017-05-11T02:21:48.275Z,0
2017-05-11T02:22:28.865Z,0
2017-05-11T02:23:09.475Z,0
2017-05-11T02:23:50.095Z,0
2017-05-11T02:24:30.756Z,0
2017-05-11T02:25:11.356Z,0
2017-05-11T02:25:52.064Z,0
2017-05-11T02:26:32.644Z,0
2017-05-11T02:27:13.247Z,0
2017-05-11T02:27:53.835Z,0
2017-05-11T02:28:34.406Z,0
2017-05-11T02:29:14.994Z,0
2017-05-11T02:29:55.599Z,0
2017-05-11T02:30:36.199Z,0
2017-05-11T02:31:16.839Z,0
2017-05-11T02:31:57.416Z,0
2017-05-11T02:32:38.022Z,0
2017-05-11T02:33:18.596Z,0
2017-05-11T02:33:59.215Z,0
2017-05-11T02:34:39.812Z,0
2017-05-11T02:35:20.389Z,0
2017-05-11T02:36:00.981Z,0
2017-05-11T02:36:41.557Z,0
2017-05-11T02:37:22.162Z,0
2017-05-11T02:38:02.722Z,0
2017-05-11T02:38:43.334Z,0
2017-05-11T02:39:23.959Z,0
2017-05-11T02:40:04.538Z,0
2017-05-11T02:40:45.178Z,0
2017-05-11T02:41:25.751Z,0
2017-05-11T02:42:06.349Z,0
2017-05-11T02:42:46.976Z,0
2017-05-11T02:43:27.581Z,0
2017-05-11T02:44:08.163Z,0
2017-05-11T02:44:48.778Z,0
2017-05-11T02:45:29.377Z,0
2017-05-11T02:46:09.963Z,0
2017-05-11T02:46:50.558Z,0
2017-05-11T02:47:31.175Z,0
2017-05-11T02:48:11.778Z,0
2017-05-11T02:48:52.414Z,0
2017-05-11T02:49:32.983Z,0
2017-05-11T02:50:13.600Z,0
2017-05-11T02:50:54.195Z,0
2017-05-11T02:51:34.811Z,0
2017-05-11T02:52:15.412Z,0
2017-05-11T02:52:56.032Z,0
2017-05-11T02:53:36.627Z,0
2017-05-11T02:54:17.214Z,0
2017-05-11T02:54:57.823Z,0
2017-05-11T02:55:38.463Z,0
2017-05-11T02:56:19.068Z,0
2017-05-11T02:56:59.649Z,0
2017-05-11T02:57:40.275Z,0
2017-05-11T02:58:20.917Z,0
2017-05-11T02:59:01.533Z,0
2017-05-11T02:59:42.202Z,0
2017-05-11T03:00:22.766Z,0
2017-05-11T03:01:03.593Z,0
2017-05-11T03:01:44.189Z,0
2017-05-11T03:02:24.801Z,0
2017-05-11T03:03:05.397Z,0
2017-05-11T03:03:46.019Z,0
2017-05-11T03:04:26.625Z,0
2017-05-11T03:05:07.259Z,0
2017-05-11T03:05:47.858Z,0
2017-05-11T03:06:28.499Z,0
2017-05-11T03:07:09.070Z,0
2017-05-11T03:07:49.674Z,0
2017-05-11T03:08:30.284Z,0
2017-05-11T03:09:10.879Z,0
2017-05-11T03:09:51.496Z,0
2017-05-11T03:10:32.085Z,0
2017-05-11T03:11:12.682Z,0
2017-05-11T03:11:53.250Z,0
2017-05-11T03:12:33.837Z,0
2017-05-11T03:13:14.444Z,0
2017-05-11T03:13:55.030Z,0
2017-05-11T03:14:35.609Z,0
2017-05-11T03:15:16.199Z,0
2017-05-11T03:15:56.802Z,0
2017-05-11T03:16:37.400Z,0
2017-05-11T03:17:18.058Z,0
2017-05-11T03:17:58.627Z,0
2017-05-11T03:18:39.248Z,0
2017-05-11T03:19:19.941Z,0
2017-05-11T03:20:00.559Z,0
2017-05-11T03:20:41.175Z,0
2017-05-11T03:21:21.767Z,0
2017-05-11T03:22:02.373Z,0
2017-05-11T03:22:42.976Z,0
2017-05-11T03:23:23.566Z,0
2017-05-11T03:24:04.187Z,0
2017-05-11T03:24:44.835Z,0
2017-05-11T03:25:25.448Z,0
2017-05-11T03:26:06.048Z,0
2017-05-11T03:26:46.648Z,0
2017-05-11T03:27:27.244Z,0
2017-05-11T03:28:07.836Z,5
2017-05-11T03:28:48.446Z,5
2017-05-11T03:29:29.052Z,5
2017-05-11T03:30:09.680Z,5
2017-05-11T03:30:50.283Z,5
2017-05-11T03:31:30.882Z,5
2017-05-11T03:32:11.536Z,5
2017-05-11T03:34:24.600Z,5
2017-05-11T03:35:05.192Z,5
2017-05-11T03:35:45.792Z,5
2017-05-11T03:36:26.402Z,5
2017-05-11T03:37:07.030Z,5
2017-05-11T03:37:47.613Z,5
2017-05-11T03:38:28.185Z,10
2017-05-11T03:39:08.784Z,10
2017-05-11T03:39:49.381Z,10
2017-05-11T03:40:29.976Z,10
2017-05-11T03:41:10.566Z,10
2017-05-11T03:41:51.179Z,10
2017-05-11T03:42:31.762Z,10
2017-05-11T03:43:12.357Z,10
2017-05-11T03:43:52.935Z,10
2017-05-11T03:44:33.521Z,10
2017-05-11T03:45:14.083Z,10
2017-05-11T03:45:54.708Z,10
2017-05-11T03:46:35.265Z,15
2017-05-11T03:47:15.852Z,15
2017-05-11T03:47:56.435Z,15
2017-05-11T03:48:36.997Z,15
2017-05-11T03:49:17.608Z,15
2017-05-11T03:49:58.183Z,15
2017-05-11T03:50:38.796Z,15
2017-05-11T03:51:19.370Z,15
2017-05-11T03:51:59.959Z,15
2017-05-11T03:52:40.540Z,20
2017-05-11T03:53:21.119Z,20
2017-05-11T03:54:01.720Z,20
2017-05-11T03:54:42.284Z,20
2017-05-11T03:55:22.876Z,20
2017-05-11T03:56:03.451Z,20
2017-05-11T03:56:44.078Z,20
2017-05-11T03:57:24.706Z,20
2017-05-11T03:58:05.302Z,20
2017-05-11T03:58:45.925Z,20
2017-05-11T03:59:26.502Z,25
2017-05-11T04:00:07.077Z,25
2017-05-11T04:00:47.650Z,25
2017-05-11T04:01:28.281Z,25
2017-05-11T04:02:08.872Z,25
2017-05-11T04:02:49.447Z,25
2017-05-11T04:03:30.034Z,25
2017-05-11T04:04:10.633Z,25
2017-05-11T04:04:51.220Z,25
2017-05-11T04:05:31.793Z,25
2017-05-11T04:06:12.392Z,25
2017-05-11T04:06:52.967Z,25
2017-05-11T04:07:33.561Z,25
2017-05-11T04:08:14.146Z,25
2017-05-11T04:08:54.724Z,30
2017-05-11T04:09:35.332Z,30
2017-05-11T04:10:15.942Z,30
2017-05-11T04:10:56.540Z,30
2017-05-11T04:11:37.146Z,30
2017-05-11T04:12:17.725Z,30
2017-05-11T04:12:58.298Z,30
2017-05-11T04:13:38.973Z,30
2017-05-11T04:14:19.553Z,30
2017-05-11T04:15:00.123Z,30
2017-05-11T04:15:40.700Z,30
2017-05-11T04:16:21.287Z,30
2017-05-11T04:17:01.861Z,30
2017-05-11T04:17:42.471Z,30
2017-05-11T04:18:23.082Z,30
2017-05-11T04:19:03.659Z,30
2017-05-11T04:19:44.245Z,35
2017-05-11T04:20:24.836Z,35
2017-05-11T04:21:05.411Z,35
2017-05-11T04:21:46.009Z,35
2017-05-11T04:22:26.606Z,35
2017-05-11T04:23:07.186Z,35
2017-05-11T04:23:47.763Z,35
2017-05-11T04:24:28.461Z,35
2017-05-11T04:25:09.040Z,40
2017-05-11T04:25:49.636Z,40
2017-05-11T04:26:30.251Z,40
2017-05-11T04:27:10.807Z,40
2017-05-11T04:27:51.416Z,40
2017-05-11T04:28:32.024Z,40
2017-05-11T04:29:12.688Z,40
2017-05-11T04:29:53.242Z,40
2017-05-11T04:30:33.825Z,45
2017-05-11T04:31:14.405Z,45
2017-05-11T04:31:54.967Z,45
2017-05-11T04:32:35.547Z,45
2017-05-11T04:33:16.135Z,45
2017-05-11T04:33:56.722Z,45
2017-05-11T04:34:37.322Z,50
2017-05-11T04:35:17.933Z,50
2017-05-11T04:35:58.507Z,50
2017-05-11T04:36:39.071Z,50
2017-05-11T04:37:19.645Z,50
2017-05-11T04:38:00.230Z,50
2017-05-11T04:38:40.874Z,50
2017-05-11T04:39:21.506Z,50
2017-05-11T04:40:02.094Z,50
2017-05-11T04:40:42.707Z,50
2017-05-11T04:41:23.279Z,50
2017-05-11T04:42:03.850Z,50
2017-05-11T04:42:44.428Z,50
2017-05-11T04:43:25.023Z,55
2017-05-11T04:44:05.606Z,55
2017-05-11T04:44:46.178Z,55
2017-05-11T04:45:26.795Z,55
2017-05-11T04:46:07.450Z,60
2017-05-11T04:50:38.589Z,65
2017-05-11T04:51:19.153Z,65
2017-05-11T04:51:59.728Z,70
2017-05-11T04:52:40.342Z,70
2017-05-11T04:53:20.897Z,70
2017-05-11T04:54:01.509Z,75
2017-05-11T04:54:42.080Z,75
2017-05-11T04:55:22.651Z,80
2017-05-11T04:56:03.258Z,80
2017-05-11T04:56:43.894Z,80
2017-05-11T04:57:24.562Z,80
2017-05-11T04:58:05.214Z,85
2017-05-11T04:58:45.787Z,85
2017-05-11T04:59:26.420Z,85
2017-05-11T05:00:07.033Z,90
2017-05-11T05:00:47.590Z,90
2017-05-11T05:01:28.166Z,90
2017-05-11T05:02:08.774Z,90
2017-05-11T05:02:49.382Z,90
2017-05-11T05:03:29.963Z,95
2017-05-11T05:04:10.582Z,100
2017-05-11T05:04:51.240Z,95
2017-05-11T05:05:31.898Z,100
2017-05-11T05:06:12.561Z,100
2017-05-11T05:06:53.131Z,100
2017-05-11T05:07:33.755Z,100
2017-05-11T05:08:14.347Z,100
2017-05-11T05:08:54.943Z,100
2017-05-11T05:09:35.593Z,100
2017-05-11T05:10:16.253Z,100
2017-05-11T05:10:56.913Z,105
2017-05-11T05:11:37.521Z,105
2017-05-11T05:12:18.095Z,105
2017-05-11T05:12:58.675Z,105
2017-05-11T05:13:39.312Z,110
2017-05-11T05:14:19.926Z,110
2017-05-11T05:15:00.524Z,110
2017-05-11T05:15:41.095Z,110
2017-05-11T05:16:21.701Z,110
2017-05-11T05:17:02.285Z,110
2017-05-11T05:17:42.896Z,110
2017-05-11T05:18:23.482Z,110
2017-05-11T05:19:04.109Z,115
2017-05-11T05:19:44.679Z,115
2017-05-11T05:20:25.294Z,110
2017-05-11T05:21:05.899Z,110
2017-05-11T05:21:46.514Z,115
2017-05-11T05:22:27.175Z,115
2017-05-11T05:23:07.762Z,115
2017-05-11T05:23:48.368Z,115
2017-05-11T05:24:28.943Z,120
2017-05-11T05:25:09.534Z,120
2017-05-11T05:25:50.103Z,125
2017-05-11T05:26:30.715Z,130
2017-05-11T05:27:11.290Z,135
2017-05-11T05:27:51.914Z,135
2017-05-11T05:28:32.507Z,140
2017-05-11T05:29:13.137Z,145
2017-05-11T05:29:53.744Z,150
2017-05-11T05:30:34.327Z,155
2017-05-11T05:31:14.944Z,165
2017-05-11T05:31:55.540Z,195
2017-05-11T05:32:36.143Z,270
2017-05-11T05:33:16.736Z,340
2017-05-11T05:33:57.398Z,445
2017-05-11T05:34:38.000Z,585
2017-05-11T05:35:18.600Z,785
2017-05-11T05:35:59.189Z,780
2017-05-11T05:36:39.769Z,750
2017-05-11T05:37:20.360Z,750
2017-05-11T05:38:01.093Z,745
2017-05-11T05:38:41.680Z,810
2017-05-11T05:39:22.280Z,805
2017-05-11T05:40:02.909Z,800
2017-05-11T05:40:43.497Z,755
2017-05-11T05:41:24.088Z,750
2017-05-11T05:42:04.661Z,825
2017-05-11T05:42:45.320Z,895
2017-05-11T05:43:25.931Z,985
2017-05-11T05:44:06.525Z,1040
2017-05-11T05:44:47.096Z,1095
2017-05-11T05:45:27.770Z,1165
2017-05-11T05:46:08.349Z,1185
2017-05-11T05:46:48.960Z,1225
2017-05-11T05:47:29.544Z,1255
2017-05-11T05:48:10.133Z,1265
2017-05-11T05:48:50.810Z,1215
2017-05-11T05:49:31.389Z,1215
2017-05-11T05:50:11.960Z,1195
2017-05-11T05:50:52.612Z,1185
2017-05-11T05:51:33.219Z,1185
2017-05-11T05:52:13.800Z,1205
2017-05-11T05:52:54.395Z,1235
2017-05-11T05:53:35.035Z,1180
2017-05-11T05:54:15.674Z,1105
2017-05-11T05:54:56.291Z,1115
2017-05-11T05:55:36.951Z,1110
2017-05-11T05:56:17.590Z,1145
2017-05-11T05:56:58.253Z,1095
2017-05-11T05:57:38.840Z,1205
2017-05-11T05:58:19.459Z,1230
2017-05-11T05:59:00.121Z,1285
2017-05-11T05:59:40.769Z,1235
2017-05-11T06:00:21.423Z,1175
2017-05-11T06:01:02.039Z,1305
2017-05-11T06:01:42.660Z,1330
2017-05-11T06:02:23.332Z,1250
2017-05-11T06:03:03.932Z,1280
2017-05-11T06:03:44.515Z,1340
2017-05-11T06:04:25.169Z,1315
2017-05-11T06:05:05.784Z,1225
2017-05-11T06:05:46.377Z,1130
2017-05-11T06:06:26.993Z,1165
2017-05-11T06:07:07.602Z,1200
2017-05-11T06:07:48.217Z,1210
2017-05-11T06:08:28.819Z,1265
2017-05-11T06:09:09.455Z,1250
2017-05-11T06:09:50.079Z,1270
2017-05-11T06:10:30.729Z,1365
2017-05-11T06:11:11.333Z,1400
2017-05-11T06:11:51.951Z,1405
2017-05-11T06:12:32.550Z,1410
2017-05-11T06:13:13.149Z,1520
2017-05-11T06:13:53.772Z,1540
2017-05-11T06:14:34.364Z,1565
2017-05-11T06:15:14.982Z,1650
2017-05-11T06:15:55.570Z,1660
2017-05-11T06:16:36.185Z,1675
2017-05-11T06:17:16.791Z,1625
2017-05-11T06:17:57.403Z,1135
2017-05-11T06:18:38.093Z,1480
2017-05-11T06:19:18.687Z,1485
2017-05-11T06:19:59.289Z,1515
2017-05-11T06:20:39.914Z,1530
2017-05-11T06:21:20.571Z,1590
2017-05-11T06:22:01.176Z,1655
2017-05-11T06:22:41.792Z,1630
2017-05-11T06:23:22.424Z,1625
2017-05-11T06:24:03.048Z,1690
2017-05-11T06:24:43.648Z,1640
2017-05-11T06:25:24.275Z,1645
2017-05-11T06:26:04.883Z,1665
2017-05-11T06:26:45.490Z,1765
2017-05-11T06:27:26.094Z,1710
2017-05-11T06:28:06.887Z,1610
2017-05-11T06:28:47.494Z,1615
2017-05-11T06:29:28.100Z,1640
2017-05-11T06:30:08.686Z,1590
2017-05-11T06:30:49.292Z,1595
2017-05-11T06:31:29.902Z,1310
2017-05-11T06:32:10.516Z,1580
2017-05-11T06:32:51.199Z,1515
2017-05-11T06:33:31.817Z,1585
2017-05-11T06:34:12.395Z,1550
2017-05-11T06:34:53.044Z,1460
2017-05-11T06:35:33.639Z,1385
2017-05-11T06:36:14.233Z,1455
2017-05-11T06:36:54.843Z,1500
2017-05-11T06:37:35.474Z,1600
2017-05-11T06:38:16.108Z,1670
2017-05-11T06:38:56.696Z,1690
2017-05-11T06:39:37.296Z,1730
2017-05-11T06:40:17.907Z,1710
2017-05-11T06:40:58.514Z,1790
2017-05-11T06:41:39.101Z,1825
2017-05-11T06:42:19.741Z,1740
2017-05-11T06:43:00.343Z,1605
2017-05-11T06:43:40.969Z,1625
2017-05-11T06:44:21.571Z,1615
2017-05-11T06:45:02.187Z,1640
2017-05-11T06:45:42.791Z,1660
2017-05-11T06:46:23.420Z,1705
2017-05-11T06:47:04.042Z,1750
2017-05-11T06:47:44.651Z,1710
2017-05-11T06:48:25.227Z,1735
2017-05-11T06:49:05.859Z,1730
2017-05-11T06:49:46.443Z,1695
2017-05-11T06:50:27.020Z,1675
2017-05-11T06:51:07.597Z,1690
2017-05-11T06:51:48.200Z,1700
2017-05-11T06:52:28.819Z,1710
2017-05-11T06:53:09.414Z,1690
2017-05-11T06:53:50.004Z,1665
2017-05-11T06:54:30.598Z,1560
2017-05-11T06:55:11.186Z,1555
2017-05-11T06:55:51.761Z,1595
2017-05-11T06:56:32.368Z,1660
2017-05-11T06:57:12.963Z,1730
2017-05-11T06:57:53.615Z,1670
2017-05-11T06:58:34.285Z,1710
2017-05-11T06:59:14.910Z,1725
2017-05-11T06:59:55.515Z,1730
2017-05-11T07:00:36.090Z,1675
2017-05-11T07:01:16.694Z,1705
2017-05-11T07:01:57.316Z,1665
2017-05-11T07:02:37.910Z,1710
2017-05-11T07:03:18.519Z,1715
2017-05-11T07:03:59.091Z,1665
2017-05-11T07:04:39.672Z,1665
2017-05-11T07:05:20.284Z,1590
2017-05-11T07:06:00.895Z,1515
2017-05-11T07:06:41.501Z,1495
2017-05-11T07:07:22.098Z,1460
2017-05-11T07:08:02.702Z,1385
2017-05-11T07:08:43.321Z,1290
2017-05-11T07:09:23.934Z,1220
2017-05-11T07:10:04.529Z,1140
2017-05-11T07:10:45.119Z,1055
2017-05-11T07:11:25.713Z,970
2017-05-11T07:12:06.300Z,885
2017-05-11T07:12:46.933Z,835
2017-05-11T07:13:27.537Z,800
2017-05-11T07:14:08.166Z,770
2017-05-11T07:14:48.754Z,735
2017-05-11T07:15:29.371Z,705
2017-05-11T07:16:09.937Z,535
2017-05-11T07:16:50.507Z,600
2017-05-11T07:17:31.118Z,555
2017-05-11T07:18:11.722Z,550
2017-05-11T07:18:52.313Z,575
2017-05-11T07:19:32.894Z,500
2017-05-11T07:20:13.493Z,490
2017-05-11T07:20:54.107Z,540
2017-05-11T07:21:34.691Z,530
2017-05-11T07:22:15.292Z,570
2017-05-11T07:22:55.889Z,505
2017-05-11T07:23:36.499Z,515
2017-05-11T07:24:17.062Z,510
2017-05-11T07:24:57.638Z,455
2017-05-11T07:25:38.253Z,455
2017-05-11T07:26:18.844Z,485
2017-05-11T07:26:59.446Z,520
2017-05-11T07:27:40.047Z,495
2017-05-11T07:28:20.645Z,490
2017-05-11T07:29:01.230Z,490
2017-05-11T07:29:41.808Z,525
2017-05-11T07:30:22.408Z,565
2017-05-11T07:31:02.987Z,560
2017-05-11T07:31:43.580Z,540
2017-05-11T07:32:24.186Z,545
2017-05-11T07:33:04.784Z,535
2017-05-11T07:33:45.360Z,525
2017-05-11T07:34:25.946Z,535
2017-05-11T07:35:06.586Z,545
2017-05-11T07:35:47.177Z,545
2017-05-11T07:36:27.815Z,555
2017-05-11T07:37:08.407Z,560
2017-05-11T07:37:49.013Z,560
2017-05-11T07:38:29.630Z,555
2017-05-11T07:39:10.223Z,565
2017-05-11T07:39:50.849Z,560
2017-05-11T07:40:31.448Z,560
2017-05-11T07:41:12.021Z,545
2017-05-11T07:41:52.604Z,550
2017-05-11T07:42:33.212Z,545
2017-05-11T07:43:13.808Z,540
2017-05-11T07:43:54.453Z,545
2017-05-11T07:44:35.042Z,540
2017-05-11T07:45:15.655Z,530
2017-05-11T07:45:56.244Z,520
2017-05-11T07:46:36.846Z,510
2017-05-11T07:47:17.410Z,510
2017-05-11T07:47:58.020Z,505
2017-05-11T07:48:38.628Z,505
2017-05-11T07:49:19.254Z,515
2017-05-11T07:49:59.921Z,515
2017-05-11T07:50:40.504Z,520
2017-05-11T07:51:21.141Z,520
2017-05-11T07:52:01.741Z,530
2017-05-11T07:52:42.329Z,545
2017-05-11T07:53:22.919Z,550
2017-05-11T07:54:03.505Z,550
2017-05-11T07:54:44.100Z,545
2017-05-11T07:55:24.704Z,520
2017-05-11T07:56:05.299Z,500
2017-05-11T07:56:45.886Z,470
2017-05-11T07:57:26.521Z,475
2017-05-11T07:58:07.178Z,475
2017-05-11T07:58:47.771Z,465
2017-05-11T07:59:28.362Z,450
2017-05-11T08:00:08.992Z,445
2017-05-11T08:00:49.570Z,445
2017-05-11T08:01:30.183Z,445
2017-05-11T08:02:10.808Z,440
2017-05-11T08:02:51.410Z,435
2017-05-11T08:03:32.026Z,435
2017-05-11T08:04:12.620Z,420
2017-05-11T08:04:53.214Z,405
2017-05-11T08:05:33.803Z,395
2017-05-11T08:06:14.456Z,380
2017-05-11T08:06:55.039Z,365
2017-05-11T08:07:35.662Z,365
2017-05-11T08:08:16.245Z,355
2017-05-11T08:08:56.841Z,355
2017-05-11T08:09:37.413Z,365
2017-05-11T08:10:18.021Z,365
2017-05-11T08:10:58.631Z,350
2017-05-11T08:11:39.219Z,360
2017-05-11T08:12:19.811Z,360
2017-05-11T08:13:00.488Z,365
2017-05-11T08:13:41.078Z,365
2017-05-11T08:14:21.675Z,355
2017-05-11T08:15:02.308Z,360
2017-05-11T08:15:42.916Z,360
2017-05-11T08:16:23.526Z,355
2017-05-11T08:17:04.554Z,345
2017-05-11T08:17:45.001Z,340
2017-05-11T08:18:25.593Z,340
2017-05-11T08:19:06.239Z,335
2017-05-11T08:19:46.840Z,335
2017-05-11T08:20:27.453Z,330
2017-05-11T08:21:08.049Z,330
2017-05-11T08:21:48.639Z,325
2017-05-11T08:22:29.279Z,325
2017-05-11T08:23:09.862Z,320
2017-05-11T08:23:50.459Z,310
2017-05-11T08:24:31.084Z,305
2017-05-11T08:25:11.680Z,305
2017-05-11T08:25:52.262Z,300
2017-05-11T08:26:32.883Z,295
2017-05-11T08:27:13.462Z,290
2017-05-11T08:27:54.146Z,290
2017-05-11T08:28:34.732Z,285
2017-05-11T08:29:15.348Z,285
2017-05-11T08:29:55.971Z,285
2017-05-11T08:30:36.564Z,280
2017-05-11T08:31:17.157Z,280
2017-05-11T08:31:57.728Z,275
2017-05-11T08:32:38.302Z,270
2017-05-11T08:33:18.894Z,270
2017-05-11T08:33:59.488Z,265
2017-05-11T08:34:40.103Z,260
2017-05-11T08:35:20.728Z,260
2017-05-11T08:36:01.331Z,255
2017-05-11T08:36:43.173Z,255
2017-05-11T08:37:23.806Z,250
2017-05-11T08:38:04.393Z,245
2017-05-11T08:38:44.986Z,245
2017-05-11T08:39:25.593Z,240
2017-05-11T08:40:06.209Z,240
2017-05-11T08:40:46.830Z,235
2017-05-11T08:41:27.414Z,235
2017-05-11T08:42:07.995Z,230
2017-05-11T08:42:48.616Z,230
2017-05-11T08:43:29.213Z,225
2017-05-11T08:44:09.821Z,225
2017-05-11T08:44:50.419Z,225
2017-05-11T08:45:31.022Z,220
2017-05-11T08:46:11.612Z,220
2017-05-11T08:46:52.210Z,220
2017-05-11T08:47:32.800Z,215
2017-05-11T08:48:13.400Z,215
2017-05-11T08:48:54.743Z,210
2017-05-11T08:49:35.370Z,215
2017-05-11T08:50:15.952Z,210
2017-05-11T08:50:56.545Z,205
2017-05-11T08:51:37.120Z,205
2017-05-11T08:52:17.764Z,205
2017-05-11T08:52:58.351Z,200
2017-05-11T08:53:38.953Z,200
2017-05-11T08:54:19.542Z,200
2017-05-11T08:55:00.144Z,195
2017-05-11T08:55:40.737Z,195
2017-05-11T08:56:21.299Z,195
2017-05-11T08:57:01.874Z,195
2017-05-11T08:57:42.466Z,190
2017-05-11T08:58:23.077Z,190
2017-05-11T08:59:03.680Z,185
2017-05-11T08:59:44.239Z,185
2017-05-11T09:00:24.832Z,185
2017-05-11T09:01:05.560Z,180
2017-05-11T09:01:46.220Z,180
2017-05-11T09:02:26.836Z,180
2017-05-11T09:03:07.438Z,175
2017-05-11T09:03:48.044Z,175
2017-05-11T09:04:28.658Z,175
2017-05-11T09:05:09.241Z,170
2017-05-11T09:05:49.857Z,170
2017-05-11T09:06:30.451Z,170
2017-05-11T09:07:11.086Z,170
2017-05-11T09:07:51.684Z,170
2017-05-11T09:08:32.260Z,170
2017-05-11T09:09:12.866Z,170
2017-05-11T09:09:53.442Z,170
2017-05-11T09:10:34.053Z,170
2017-05-11T09:11:14.645Z,165
2017-05-11T09:11:55.271Z,165
2017-05-11T09:12:35.847Z,165
2017-05-11T09:13:16.483Z,165
2017-05-11T09:13:57.087Z,165
2017-05-11T09:14:37.671Z,165
2017-05-11T09:15:18.277Z,165
2017-05-11T09:15:58.846Z,165
2017-05-11T09:16:39.431Z,165
2017-05-11T09:17:20.041Z,160
2017-05-11T09:18:00.664Z,160
2017-05-11T09:18:41.261Z,160
2017-05-11T09:19:21.871Z,160
2017-05-11T09:20:02.463Z,160
2017-05-11T09:20:43.047Z,160
2017-05-11T09:21:23.639Z,160
2017-05-11T09:22:04.219Z,160
2017-05-11T09:22:44.827Z,160
2017-05-11T09:23:25.424Z,160
2017-05-11T09:24:06.053Z,160
2017-05-11T09:24:46.630Z,155
2017-05-11T09:25:27.217Z,155
2017-05-11T09:26:07.827Z,150
2017-05-11T09:26:48.436Z,155
2017-05-11T09:27:29.067Z,155
2017-05-11T09:28:09.688Z,150
2017-05-11T09:28:50.291Z,150
2017-05-11T09:29:30.917Z,160
2017-05-11T09:30:11.547Z,160
2017-05-11T09:30:52.161Z,155
2017-05-11T09:31:32.842Z,155
2017-05-11T09:32:13.534Z,160
2017-05-11T09:32:54.516Z,155
2017-05-11T09:33:35.355Z,155
2017-05-11T09:34:16.036Z,155
2017-05-11T09:34:56.654Z,155
2017-05-11T09:35:37.275Z,150
2017-05-11T09:36:17.849Z,155
2017-05-11T09:36:58.762Z,155
2017-05-11T09:37:39.441Z,155
2017-05-11T09:38:20.168Z,150
2017-05-11T09:39:00.763Z,150